Time;durP1;ratioP1;P1;durP2;ratioP2;P2;SDS_P1;SDS_P2;PMS_P1;PMS_P2;Temp;Humidity;BMP_temperature;BMP_pressure;BME280_temperature;BME280_humidity;BME280_pressure;Samples;Min_cycle;Max_cycle;Signal;HPM_P1;HPM_P2
2021/08/12 00:03:32;;;;;;;;;;;;;;;;;;;;;
2021/08/12 00:06:28;;;;;;;1999.90;999.90;;;18.80;99.90;;;;;;5050197;28;20508;-82
2021/08/12 00:09:00;;;;;;;1999.90;999.90;;;18.70;99.90;;;;;;5057933;28;20797;-83
2021/08/12 00:12:03;;;;;;;1999.90;999.90;;;18.60;99.90;;;;;;5057612;28;20409;-82
2021/08/12 00:14:45;;;;;;;1999.90;999.90;;;18.50;99.90;;;;;;5033431;28;20893;-83
2021/08/12 00:17:17;;;;;;;1999.90;999.90;;;18.50;99.90;;;;;;5057668;28;20424;-82
2021/08/12 00:20:21;;;;;;;1999.90;999.90;;;18.50;99.90;;;;;;5058224;28;20504;-83
2021/08/12 00:23:42;;;;;;;;;;;;;;;;;;;;;
2021/08/12 00:26:47;;;;;;;1999.90;999.90;;;18.60;99.90;;;;;;5045812;28;20418;-83
2021/08/12 00:30:02;;;;;;;;;;;;;;;;;;;;;
2021/08/12 00:32:37;;;;;;;1999.90;999.90;;;18.40;99.90;;;;;;5058257;28;20490;-82
2021/08/12 00:35:12;;;;;;;1999.90;999.90;;;18.30;99.90;;;;;;5057891;28;20478;-82
2021/08/12 00:37:47;;;;;;;1999.90;999.90;;;18.30;99.90;;;;;;5037659;28;20431;-82
2021/08/12 00:40:42;;;;;;;1999.90;999.90;;;18.30;99.90;;;;;;5058207;28;20425;-82
2021/08/12 00:43:22;;;;;;;1999.90;999.90;;;18.20;99.90;;;;;;4978990;28;20507;-82
2021/08/12 00:46:46;;;;;;;1999.90;999.90;;;18.10;99.90;;;;;;4979122;28;20497;-83
2021/08/12 00:49:17;;;;;;;1999.90;999.90;;;18.20;99.90;;;;;;5051087;28;20490;-82
2021/08/12 00:52:02;;;;;;;1999.90;999.90;;;18.10;99.90;;;;;;5040138;28;20403;-83
2021/08/12 00:55:03;;;;;;;1999.90;999.90;;;18.00;99.90;;;;;;5039609;28;20415;-83
2021/08/12 00:57:40;;;;;;;1999.90;999.90;;;18.00;99.90;;;;;;5055917;28;20443;-82
2021/08/12 01:00:31;;;;;;;1999.90;999.90;;;18.00;99.90;;;;;;5040077;28;20445;-83
2021/08/12 01:03:38;;;;;;;;;;;;;;;;;;;;;
2021/08/12 01:06:14;;;;;;;1999.90;999.90;;;17.90;99.90;;;;;;5057140;28;20528;-83
2021/08/12 01:08:56;;;;;;;1999.90;999.90;;;17.90;99.90;;;;;;5040004;28;20828;-83
2021/08/12 01:11:52;;;;;;;1999.90;999.90;;;17.80;99.90;;;;;;5038840;28;20403;-82
2021/08/12 01:14:40;;;;;;;1999.90;999.90;;;17.80;99.90;;;;;;5038710;28;20499;-83
2021/08/12 01:17:24;;;;;;;1999.90;999.90;;;17.80;99.90;;;;;;5038352;28;20415;-83
2021/08/12 01:20:17;;;;;;;1999.90;999.90;;;17.70;99.90;;;;;;5039213;28;20913;-83
2021/08/12 01:22:56;;;;;;;1999.90;999.90;;;17.70;99.90;;;;;;5040065;28;20447;-83
2021/08/12 01:25:32;;;;;;;1999.90;999.90;;;17.60;99.90;;;;;;5053887;28;20411;-83
2021/08/12 01:28:30;;;;;;;1999.90;999.90;;;17.50;99.90;;;;;;5056528;28;20505;-83
2021/08/12 01:31:29;;;;;;;1999.90;999.90;;;17.50;99.90;;;;;;5039898;28;20415;-83
2021/08/12 01:34:43;;;;;;;1999.90;999.90;;;17.50;99.90;;;;;;5035763;28;20411;-83
2021/08/12 01:37:25;;;;;;;1999.90;999.90;;;17.50;99.90;;;;;;5039222;28;20521;-83
2021/08/12 01:40:03;;;;;;;1999.90;999.90;;;17.50;99.90;;;;;;5056679;28;20421;-81
2021/08/12 01:45:31;;;;;;;1999.90;999.90;;;17.30;99.90;;;;;;5057060;28;20975;-83
2021/08/12 01:48:03;;;;;;;1999.90;999.90;;;17.30;99.90;;;;;;5039461;28;20439;-83
2021/08/12 01:50:32;;;;;;;1999.90;999.90;;;17.20;99.90;;;;;;5039169;28;20407;-83
2021/08/12 01:53:31;;;;;;;1999.90;999.90;;;17.20;99.90;;;;;;5057233;28;20406;-83
2021/08/12 01:58:28;;;;;;;1999.90;999.90;;;17.30;99.90;;;;;;5071459;22;20487;-83
2021/08/12 02:01:30;;;;;;;1999.90;999.90;;;17.30;99.90;;;;;;5057918;28;20889;-83
2021/08/12 02:04:17;;;;;;;1999.90;999.90;;;17.30;99.90;;;;;;5039196;28;21009;-83
2021/08/12 02:06:49;;;;;;;1999.90;999.90;;;17.20;99.90;;;;;;5039378;28;20431;-83
2021/08/12 02:09:27;;;;;;;1999.90;999.90;;;17.20;99.90;;;;;;5058480;28;20387;-83
2021/08/12 02:11:53;;;;;;;1999.90;999.90;;;17.20;99.90;;;;;;4989714;28;20407;-83
2021/08/12 02:14:34;;;;;;;;;;;;;;;;;;;;;
2021/08/12 02:17:05;;;;;;;1999.90;999.90;;;17.10;99.90;;;;;;5056992;28;20272;-83
2021/08/12 02:19:34;;;;;;;1999.90;999.90;;;17.10;99.90;;;;;;5057003;28;20744;-83
2021/08/12 02:22:28;;;;;;;1999.90;999.90;;;17.10;99.90;;;;;;5042400;28;20459;-83
2021/08/12 02:25:02;;;;;;;1999.90;999.90;;;17.10;99.90;;;;;;5062406;28;20495;-83
2021/08/12 02:27:50;;;;;;;1999.90;999.90;;;17.10;99.90;;;;;;5044444;28;20433;-83
2021/08/12 02:30:17;;;;;;;1999.90;999.90;;;17.10;99.90;;;;;;5062398;28;20399;-83
2021/08/12 02:32:50;;;;;;;1999.90;999.90;;;17.10;99.90;;;;;;5061665;28;20439;-82
2021/08/12 02:36:04;;;;;;;1999.90;999.90;;;17.10;99.90;;;;;;5062689;28;20401;-83
2021/08/12 02:38:06;;;;;;;1999.90;999.90;;;17.10;99.90;;;;;;5049725;28;20515;-83
2021/08/12 02:40:47;;;;;;;1999.90;999.90;;;17.20;99.90;;;;;;5061155;28;20482;-83
2021/08/12 02:43:20;;;;;;;1999.90;999.90;;;17.10;99.90;;;;;;5043578;28;20449;-83
2021/08/12 02:45:51;;;;;;;1999.90;999.90;;;17.10;99.90;;;;;;5061665;28;20755;-83
2021/08/12 02:48:32;;;;;;;1999.90;999.90;;;17.10;99.90;;;;;;5044004;28;20431;-83
2021/08/12 02:51:32;;;;;;;;;;;;;;;;;;;;;
2021/08/12 02:54:00;;;;;;;1999.90;999.90;;;17.20;99.90;;;;;;5057173;28;20501;-83
2021/08/12 02:56:43;;;;;;;1999.90;999.90;;;17.20;99.90;;;;;;5042874;28;20442;-83
2021/08/12 02:59:59;;;;;;;1999.90;999.90;;;17.20;99.90;;;;;;5042873;28;20504;-83
2021/08/12 03:02:27;;;;;;;1999.90;999.90;;;17.20;99.90;;;;;;5060294;28;20550;-83
2021/08/12 03:04:58;;;;;;;1999.90;999.90;;;17.20;99.90;;;;;;5060295;28;20403;-83
2021/08/12 03:07:40;;;;;;;1999.90;999.90;;;17.20;99.90;;;;;;5040984;28;20432;-83
2021/08/12 03:10:19;;;;;;;1999.90;999.90;;;17.10;99.90;;;;;;5060502;28;20796;-83
2021/08/12 03:12:49;;;;;;;1999.90;999.90;;;17.20;99.90;;;;;;5060668;28;20406;-83
2021/08/12 03:15:22;;;;;;;1999.90;999.90;;;17.10;99.90;;;;;;5060660;28;20430;-83
2021/08/12 03:18:01;;;;;;;1999.90;999.90;;;17.10;99.90;;;;;;5060893;28;20431;-83
2021/08/12 03:20:30;;;;;;;1999.90;999.90;;;17.00;99.90;;;;;;5042747;28;20473;-83
2021/08/12 03:23:00;;;;;;;1999.90;999.90;;;17.00;99.90;;;;;;5060186;28;20454;-83
2021/08/12 03:25:31;;;;;;;1999.90;999.90;;;16.90;99.90;;;;;;5042134;28;20532;-83
2021/08/12 03:28:09;;;;;;;1999.90;999.90;;;17.00;99.90;;;;;;5042340;28;20527;-83
2021/08/12 03:30:43;;;;;;;1999.90;999.90;;;16.90;99.90;;;;;;5059939;28;20386;-83
2021/08/12 03:33:16;;;;;;;1999.90;999.90;;;16.90;99.90;;;;;;5060618;28;20750;-83
2021/08/12 03:35:54;;;;;;;1999.90;999.90;;;16.90;99.90;;;;;;5043433;28;20420;-83
2021/08/12 03:38:21;;;;;;;1999.90;999.90;;;16.90;99.90;;;;;;5062482;28;20395;-83
2021/08/12 03:43:26;;;;;;;1999.90;999.90;;;16.90;99.90;;;;;;5055759;28;20470;-79
2021/08/12 03:45:57;;;;;;;1999.90;999.90;;;16.90;99.90;;;;;;5057329;28;20428;-79
2021/08/12 03:48:30;;;;;;;1999.90;999.90;;;17.00;99.90;;;;;;5019314;28;20392;-80
2021/08/12 03:50:56;;;;;;;1999.90;999.90;;;17.00;99.90;;;;;;5002680;28;20407;-79
2021/08/12 03:53:33;;;;;;;1999.90;999.90;;;17.00;99.90;;;;;;5036533;28;20397;-78
2021/08/12 03:56:00;;;;;;;1999.90;999.90;;;17.00;99.90;;;;;;5036850;28;20173;-78
2021/08/12 03:58:33;;;;;;;1999.90;999.90;;;17.00;99.90;;;;;;5019187;28;20407;-78
2021/08/12 04:04:14;;;;;;;1999.90;999.90;;;16.90;99.90;;;;;;5036339;28;20439;-81
2021/08/12 04:07:01;;;;;;;1999.90;999.90;;;16.90;99.90;;;;;;5036392;28;20463;-79
2021/08/12 04:09:29;;;;;;;1999.90;999.90;;;16.90;99.90;;;;;;5017363;28;20499;-79
2021/08/12 04:12:23;;;;;;;1999.90;999.90;;;17.00;99.90;;;;;;5036265;28;20396;-79
2021/08/12 04:15:14;;;;;;;1999.90;999.90;;;16.90;99.90;;;;;;5036046;28;20403;-79
2021/08/12 04:17:57;;;;;;;1999.90;999.90;;;16.90;99.90;;;;;;5036259;28;20462;-79
2021/08/12 04:20:45;;;;;;;1999.90;999.90;;;16.90;99.90;;;;;;5036392;28;20396;-79
2021/08/12 04:23:11;;;;;;;1999.90;999.90;;;16.90;99.90;;;;;;5036398;28;20455;-79
2021/08/12 04:25:54;;;;;;;1999.90;999.90;;;16.90;99.90;;;;;;5036267;28;20496;-79
2021/08/12 04:28:25;;;;;;;1999.90;999.90;;;16.90;99.90;;;;;;5016250;28;20497;-80
2021/08/12 04:31:33;;;;;;;1999.90;999.90;;;16.90;99.90;;;;;;5036004;28;20388;-79
2021/08/12 04:34:12;;;;;;;1999.90;999.90;;;16.90;99.90;;;;;;5035630;28;20407;-80
2021/08/12 04:36:49;;;;;;;1999.90;999.90;;;16.80;99.90;;;;;;5035846;28;20794;-79
2021/08/12 04:39:17;;;;;;;1999.90;999.90;;;16.80;99.90;;;;;;5035870;28;20392;-79
2021/08/12 04:41:45;;;;;;;1999.90;999.90;;;16.90;99.90;;;;;;5017699;28;20478;-81
2021/08/12 04:44:11;;;;;;;1999.90;999.90;;;16.90;99.90;;;;;;5018153;28;20435;-80
2021/08/12 04:46:37;;;;;;;1999.90;999.90;;;17.00;99.90;;;;;;5018577;28;20432;-81
2021/08/12 04:49:03;;;;;;;1999.90;999.90;;;17.00;99.90;;;;;;5035876;28;20174;-79
2021/08/12 04:51:31;;;;;;;1999.90;999.90;;;17.00;99.90;;;;;;5017651;28;20251;-80
2021/08/12 04:53:57;;;;;;;1999.90;999.90;;;17.10;99.90;;;;;;5035375;28;20930;-79
2021/08/12 04:56:23;;;;;;;1999.90;999.90;;;17.10;99.90;;;;;;5035043;28;20428;-80
2021/08/12 04:58:57;;;;;;;1999.90;999.90;;;17.00;99.90;;;;;;5017991;28;20216;-79
2021/08/12 05:01:22;;;;;;;1999.90;999.90;;;17.10;99.90;;;;;;5017571;28;20588;-79
2021/08/12 05:03:48;;;;;;;1999.90;999.90;;;17.20;99.90;;;;;;5017733;28;20476;-80
2021/08/12 05:06:15;;;;;;;1999.90;999.90;;;17.20;99.90;;;;;;5018632;28;20196;-79
2021/08/12 05:08:41;;;;;;;1999.90;999.90;;;17.20;99.90;;;;;;5035042;28;20161;-79
2021/08/12 05:11:08;;;;;;;1999.90;999.90;;;17.20;99.90;;;;;;5017405;28;20428;-82
2021/08/12 05:13:34;;;;;;;1999.90;999.90;;;17.30;99.90;;;;;;5017296;28;20975;-79
2021/08/12 05:16:00;;;;;;;1999.90;999.90;;;17.30;99.90;;;;;;5017111;28;20515;-80
2021/08/12 05:18:25;;;;;;;1999.90;999.90;;;17.30;99.90;;;;;;5017588;28;20945;-80
2021/08/12 05:20:51;;;;;;;1999.90;999.90;;;17.30;99.90;;;;;;5035421;28;20170;-81
2021/08/12 05:23:17;;;;;;;1999.90;999.90;;;17.30;99.90;;;;;;5035347;28;20726;-80
2021/08/12 05:25:44;;;;;;;1999.90;999.90;;;17.30;99.90;;;;;;5035366;28;20158;-80
2021/08/12 05:28:13;;;;;;;1999.90;999.90;;;17.30;99.90;;;;;;5017600;28;20699;-80
2021/08/12 05:30:39;;;;;;;1999.90;999.90;;;17.40;99.90;;;;;;5035445;28;20458;-79
2021/08/12 05:33:05;;;;;;;1999.90;999.90;;;17.40;99.90;;;;;;5035463;28;20466;-78
2021/08/12 05:35:31;;;;;;;1999.90;999.90;;;17.50;99.90;;;;;;5034855;28;20416;-79
2021/08/12 05:37:57;;;;;;;1999.90;999.90;;;17.50;99.90;;;;;;5035821;28;20481;-81
2021/08/12 05:40:22;;;;;;;1999.90;999.90;;;17.60;99.90;;;;;;5035376;28;20629;-79
2021/08/12 05:42:48;;;;;;;1999.90;999.90;;;17.70;99.90;;;;;;5035002;28;20212;-80
2021/08/12 05:45:13;;;;;;;1999.90;999.90;;;17.70;99.90;;;;;;5035255;28;20161;-81
2021/08/12 05:47:39;;;;;;;1999.90;999.90;;;17.80;99.90;;;;;;5017310;28;20707;-80
2021/08/12 05:50:05;;;;;;;1999.90;999.90;;;17.90;99.90;;;;;;5017629;28;20171;-79
2021/08/12 05:52:31;;;;;;;1999.90;999.90;;;18.00;99.90;;;;;;5035645;28;20241;-80
2021/08/12 05:54:57;;;;;;;1999.90;999.90;;;18.00;99.90;;;;;;5018277;28;20443;-81
2021/08/12 05:57:22;;;;;;;1999.90;999.90;;;18.10;99.90;;;;;;5017464;28;20186;-79
2021/08/12 05:59:48;;;;;;;1999.90;999.90;;;18.10;99.90;;;;;;5036245;28;20177;-81
2021/08/12 06:02:14;;;;;;;1999.90;999.90;;;18.20;99.90;;;;;;5035733;28;20189;-80
2021/08/12 06:04:39;;;;;;;1999.90;999.90;;;18.30;99.90;;;;;;5035393;28;20169;-81
2021/08/12 06:07:05;;;;;;;1999.90;999.90;;;18.30;99.90;;;;;;5035781;28;20216;-80
2021/08/12 06:09:31;;;;;;;1999.90;999.90;;;18.30;99.90;;;;;;5034865;28;20169;-80
2021/08/12 06:11:56;;;;;;;1999.90;999.90;;;18.40;99.90;;;;;;5034683;28;20292;-80
2021/08/12 06:14:22;;;;;;;1999.90;999.90;;;18.40;99.90;;;;;;5017016;28;20635;-80
2021/08/12 06:16:48;;;;;;;1999.90;999.90;;;18.60;99.90;;;;;;5017545;28;20227;-81
2021/08/12 06:19:13;;;;;;;1999.90;999.90;;;18.60;99.90;;;;;;5018515;28;20169;-81
2021/08/12 06:21:39;;;;;;;1999.90;999.90;;;18.70;99.90;;;;;;5036490;28;20166;-82
2021/08/12 06:24:05;;;;;;;1999.90;999.90;;;18.80;99.90;;;;;;5018427;28;20176;-82
2021/08/12 06:26:30;;;;;;;1999.90;999.90;;;18.80;99.90;;;;;;5036708;28;20196;-82
2021/08/12 06:28:56;;;;;;;1999.90;999.90;;;18.70;99.90;;;;;;5036348;28;20408;-81
2021/08/12 06:31:22;;;;;;;1999.90;999.90;;;18.80;99.90;;;;;;5036230;28;20200;-81
2021/08/12 06:33:48;;;;;;;1999.90;999.90;;;18.80;99.90;;;;;;5036211;28;20548;-82
2021/08/12 06:36:13;;;;;;;1999.90;999.90;;;19.00;99.90;;;;;;5018986;28;20170;-80
2021/08/12 06:38:39;;;;;;;1999.90;999.90;;;19.10;99.90;;;;;;5036291;28;20172;-81
2021/08/12 06:41:05;;;;;;;1999.90;999.90;;;19.10;99.90;;;;;;5018264;28;20662;-81
2021/08/12 06:43:30;;;;;;;1999.90;999.90;;;19.20;99.90;;;;;;5034636;28;20280;-80
2021/08/12 06:45:59;;;;;;;1999.90;999.90;;;19.40;99.90;;;;;;5033777;28;20169;-79
2021/08/12 06:48:24;;;;;;;1999.90;999.90;;;19.30;99.90;;;;;;5034174;28;20190;-79
2021/08/12 06:50:50;;;;;;;1999.90;999.90;;;19.40;99.90;;;;;;5033695;28;20408;-79
2021/08/12 06:53:16;;;;;;;1999.90;999.90;;;19.50;99.90;;;;;;5033756;28;20219;-80
2021/08/12 06:55:42;;;;;;;1999.90;999.90;;;19.60;99.90;;;;;;5034418;28;20690;-80
2021/08/12 06:58:07;;;;;;;1999.90;999.90;;;19.60;99.90;;;;;;5033927;28;20561;-79
2021/08/12 07:00:33;;;;;;;1999.90;999.90;;;19.70;99.90;;;;;;5033581;28;20622;-79
2021/08/12 07:02:59;;;;;;;1999.90;999.90;;;19.70;99.90;;;;;;5015990;28;20197;-79
2021/08/12 07:05:25;;;;;;;1999.90;999.90;;;19.70;99.90;;;;;;5034380;28;20177;-80
2021/08/12 07:07:51;;;;;;;1999.90;999.90;;;19.70;99.90;;;;;;5034319;28;20238;-79
2021/08/12 07:10:17;;;;;;;1999.90;999.90;;;19.80;99.90;;;;;;5037617;28;20480;-79
2021/08/12 07:12:43;;;;;;;1999.90;999.90;;;19.90;99.90;;;;;;5019800;28;20646;-80
2021/08/12 07:15:09;;;;;;;1999.90;999.90;;;20.00;99.90;;;;;;5036944;28;20464;-80
2021/08/12 07:17:36;;;;;;;1999.90;999.90;;;20.10;99.90;;;;;;5036990;28;20254;-79
2021/08/12 07:20:06;;;;;;;1999.90;999.90;;;20.20;99.90;;;;;;5036879;28;20175;-79
2021/08/12 07:22:37;;;;;;;1999.90;999.90;;;20.50;99.90;;;;;;5037587;28;20502;-81
2021/08/12 07:25:03;;;;;;;1999.90;999.90;;;20.60;99.90;;;;;;5037350;28;20376;-79
2021/08/12 07:27:29;;;;;;;1999.90;999.90;;;20.60;99.90;;;;;;5036648;28;20523;-79
2021/08/12 07:29:55;;;;;;;1999.90;999.90;;;20.70;99.90;;;;;;5037356;28;20957;-80
2021/08/12 07:32:21;;;;;;;1999.90;999.90;;;20.80;99.90;;;;;;5018809;28;20170;-79
2021/08/12 07:34:46;;;;;;;1999.90;999.90;;;20.80;99.90;;;;;;5037429;28;20170;-79
2021/08/12 07:37:12;;;;;;;1999.90;999.90;;;20.90;99.90;;;;;;5019199;28;20202;-79
2021/08/12 07:39:38;;;;;;;1999.90;999.90;;;20.80;99.90;;;;;;5037020;28;20228;-78
2021/08/12 07:42:04;;;;;;;1999.90;999.90;;;20.90;99.90;;;;;;5036920;28;20200;-78
2021/08/12 07:44:30;;;;;;;1999.90;999.90;;;21.00;99.90;;;;;;5036928;28;20747;-80
2021/08/12 07:46:55;;;;;;;1999.90;999.90;;;21.10;99.90;;;;;;5036574;28;20791;-78
2021/08/12 07:49:21;;;;;;;1999.90;999.90;;;21.10;99.90;;;;;;5036713;28;20638;-80
2021/08/12 07:51:47;;;;;;;1999.90;999.90;;;21.10;99.90;;;;;;5037055;28;20162;-78
2021/08/12 07:54:13;;;;;;;1999.90;999.90;;;21.10;99.90;;;;;;5036503;28;20247;-80
2021/08/12 07:56:39;;;;;;;1999.90;999.90;;;21.10;99.90;;;;;;5036213;28;20463;-78
2021/08/12 07:59:05;;;;;;;1999.90;999.90;;;21.20;99.90;;;;;;5018708;28;20178;-78
2021/08/12 08:01:30;;;;;;;1999.90;999.90;;;21.30;99.90;;;;;;5036545;28;20166;-78
2021/08/12 08:03:58;;;;;;;1999.90;999.90;;;21.30;99.90;;;;;;5036079;28;20203;-78
2021/08/12 08:06:24;;;;;;;1999.90;999.90;;;21.20;99.90;;;;;;5036295;28;20663;-78
2021/08/12 08:08:50;;;;;;;1999.90;999.90;;;21.30;99.90;;;;;;5036259;28;20400;-78
2021/08/12 08:11:17;;;;;;;1999.90;999.90;;;21.30;99.90;;;;;;5036253;28;20162;-78
2021/08/12 08:13:43;;;;;;;1999.90;999.90;;;21.30;99.90;;;;;;5036297;28;20231;-79
2021/08/12 08:16:09;;;;;;;1999.90;999.90;;;21.30;99.90;;;;;;5035948;28;20407;-78
2021/08/12 08:18:35;;;;;;;1999.90;999.90;;;21.40;99.90;;;;;;5035827;28;20413;-78
2021/08/12 08:21:00;;;;;;;1999.90;999.90;;;21.40;99.90;;;;;;5035543;28;20166;-78
2021/08/12 08:23:26;;;;;;;1999.90;999.90;;;21.50;99.90;;;;;;5035633;28;20189;-79
2021/08/12 08:25:52;;;;;;;1999.90;999.90;;;21.60;99.90;;;;;;5035764;28;20161;-78
2021/08/12 08:28:17;;;;;;;1999.90;999.90;;;21.80;99.90;;;;;;5035803;28;20231;-79
2021/08/12 08:30:44;;;;;;;1999.90;999.90;;;21.60;99.90;;;;;;5018361;28;20212;-79
2021/08/12 08:33:11;;;;;;;1999.90;999.90;;;21.60;99.90;;;;;;5035800;28;20245;-80
2021/08/12 08:35:37;;;;;;;1999.90;999.90;;;21.70;99.90;;;;;;5036491;28;20440;-78
2021/08/12 08:38:03;;;;;;;1999.90;999.90;;;21.70;99.90;;;;;;5036339;28;20931;-79
2021/08/12 08:40:28;;;;;;;1999.90;999.90;;;21.90;99.90;;;;;;5037033;28;20549;-80
2021/08/12 08:42:54;;;;;;;1999.90;999.90;;;21.90;99.90;;;;;;5035701;28;20974;-79
2021/08/12 08:45:28;;;;;;;1999.90;999.90;;;21.90;99.90;;;;;;5035926;28;20162;-79
2021/08/12 08:47:55;;;;;;;1999.90;999.90;;;22.00;99.90;;;;;;5035305;28;20553;-80
2021/08/12 08:50:25;;;;;;;1999.90;999.90;;;21.80;99.90;;;;;;5035351;28;20404;-78
2021/08/12 08:52:52;;;;;;;1999.90;999.90;;;22.00;99.90;;;;;;5035984;28;20399;-78
2021/08/12 08:55:22;;;;;;;1999.90;999.90;;;22.10;99.90;;;;;;5035685;28;20420;-78
2021/08/12 08:57:53;;;;;;;1999.90;999.90;;;22.20;99.90;;;;;;5017845;28;21037;-78
2021/08/12 09:00:25;;;;;;;1999.90;999.90;;;22.10;99.90;;;;;;5018142;28;20426;-79
2021/08/12 09:02:52;;;;;;;1999.90;999.90;;;22.10;99.90;;;;;;5017631;28;20492;-78
2021/08/12 09:05:19;;;;;;;1999.90;999.90;;;22.10;99.90;;;;;;5035560;28;20400;-78
2021/08/12 09:07:52;;;;;;;1999.90;999.90;;;22.20;99.90;;;;;;5035348;28;20424;-79
2021/08/12 09:10:18;;;;;;;1999.90;999.90;;;22.30;99.90;;;;;;5017675;28;20428;-78
2021/08/12 09:12:45;;;;;;;1999.90;999.90;;;22.40;99.90;;;;;;5035043;28;20462;-79
2021/08/12 09:15:19;;;;;;;1999.90;999.90;;;22.60;99.90;;;;;;5035103;28;20408;-79
2021/08/12 09:17:46;;;;;;;1999.90;999.90;;;22.80;99.90;;;;;;5035471;28;20446;-79
2021/08/12 09:20:18;;;;;;;1999.90;999.90;;;22.90;99.90;;;;;;5017366;28;20802;-79
2021/08/12 09:22:46;;;;;;;1999.90;999.90;;;23.00;99.90;;;;;;5035478;28;20431;-79
2021/08/12 09:25:13;;;;;;;1999.90;999.90;;;23.10;99.90;;;;;;5035521;28;20434;-78
2021/08/12 09:27:39;;;;;;;1999.90;999.90;;;23.30;99.90;;;;;;5034751;28;20523;-78
2021/08/12 09:30:09;;;;;;;1999.90;999.90;;;23.40;99.90;;;;;;5035420;28;20448;-79
2021/08/12 09:32:50;;;;;;;1999.90;999.90;;;23.60;99.90;;;;;;5034278;28;20408;-78
2021/08/12 09:35:27;;;;;;;1999.90;999.90;;;23.80;99.90;;;;;;5017244;28;20444;-78
2021/08/12 09:37:53;;;;;;;1999.90;999.90;;;23.90;99.90;;;;;;5016958;28;20428;-79
2021/08/12 09:40:26;;;;;;;1999.90;999.90;;;24.00;99.90;;;;;;5035059;28;20462;-78
2021/08/12 09:43:00;;;;;;;1999.90;999.90;;;24.10;99.90;;;;;;5132335;22;20513;-85
2021/08/12 09:45:28;;;;;;;1999.90;999.90;;;24.20;99.90;;;;;;5048465;28;20395;-85
2021/08/12 09:47:55;;;;;;;1999.90;999.90;;;24.20;99.90;;;;;;5047986;28;20526;-85
2021/08/12 09:50:31;;;;;;;1999.90;999.90;;;24.20;99.90;;;;;;5048055;28;20411;-85
2021/08/12 09:52:58;;;;;;;1999.90;999.90;;;24.30;99.90;;;;;;5067994;28;20467;-85
2021/08/12 09:55:24;;;;;;;1999.90;999.90;;;24.40;99.90;;;;;;5042110;28;20408;-87
2021/08/12 09:57:55;;;;;;;1999.90;999.90;;;24.40;99.90;;;;;;5035531;28;20435;-87
2021/08/12 10:00:56;;;;;;;1999.90;999.90;;;24.70;99.90;;;;;;5053233;28;20413;-87
2021/08/12 10:03:30;;;;;;;1999.90;999.90;;;25.00;99.90;;;;;;4983543;28;20458;-87
2021/08/12 10:06:05;;;;;;;1999.90;999.90;;;25.20;99.90;;;;;;5053370;28;20409;-86
2021/08/12 10:08:38;;;;;;;1999.90;999.90;;;25.40;99.90;;;;;;5053073;28;20827;-87
2021/08/12 10:11:26;;;;;;;1999.90;999.90;;;25.40;99.90;;;;;;5052869;28;20442;-87
2021/08/12 10:13:55;;;;;;;1999.90;999.90;;;25.30;99.90;;;;;;5053092;28;20382;-87
2021/08/12 10:16:22;;;;;;;1999.90;999.90;;;25.50;99.90;;;;;;5052757;28;20422;-87
2021/08/12 10:18:49;;;;;;;1999.90;999.90;;;25.40;99.00;;;;;;5057084;28;20431;-85
2021/08/12 10:21:19;;;;;;;1999.90;999.90;;;25.50;99.90;;;;;;5040774;28;20419;-85
2021/08/12 10:23:46;;;;;;;1999.90;999.90;;;25.80;99.90;;;;;;5057064;28;20444;-85
2021/08/12 10:26:12;;;;;;;1999.90;999.90;;;25.70;96.10;;;;;;5038106;28;20417;-85
2021/08/12 10:28:42;;;;;;;1999.90;999.90;;;25.30;99.60;;;;;;5055064;28;20413;-85
2021/08/12 10:31:08;;;;;;;1999.90;999.90;;;25.30;99.70;;;;;;5056044;28;20397;-85
2021/08/12 10:33:35;;;;;;;1999.90;999.90;;;25.40;99.90;;;;;;5056372;28;20397;-85
2021/08/12 10:36:02;;;;;;;1999.90;999.90;;;25.30;99.90;;;;;;5058314;28;20414;-84
2021/08/12 10:38:27;;;;;;;1999.90;999.90;;;25.50;99.90;;;;;;5055287;28;20407;-85
2021/08/12 10:40:55;;;;;;;1999.90;999.90;;;25.40;99.90;;;;;;5056376;28;20984;-85
2021/08/12 10:43:27;;;;;;;1999.90;999.90;;;25.40;99.90;;;;;;5039985;28;20200;-85
2021/08/12 10:45:58;;;;;;;1999.90;999.90;;;25.30;99.90;;;;;;5059050;28;20389;-85
2021/08/12 10:48:28;;;;;;;1999.90;999.90;;;25.20;99.90;;;;;;5060800;28;20916;-85
2021/08/12 10:51:00;;;;;;;1999.90;999.90;;;25.00;99.90;;;;;;5062438;28;20443;-85
2021/08/12 10:53:26;;;;;;;1999.90;999.90;;;25.10;99.90;;;;;;5041250;28;20495;-85
2021/08/12 10:56:02;;;;;;;1999.90;999.90;;;25.20;99.90;;;;;;5039975;28;20935;-85
2021/08/12 10:58:32;;;;;;;1999.90;999.90;;;25.10;99.90;;;;;;5041694;28;20402;-85
2021/08/12 11:01:00;;;;;;;1999.90;999.90;;;25.00;99.90;;;;;;5044251;28;20480;-85
2021/08/12 11:03:32;;;;;;;1999.90;999.90;;;24.90;99.90;;;;;;5058681;28;20487;-86
2021/08/12 11:06:06;;;;;;;1999.90;999.90;;;25.00;99.90;;;;;;5058226;28;20448;-85
2021/08/12 11:08:53;;;;;;;1999.90;999.90;;;25.10;99.90;;;;;;5039026;28;20841;-86
2021/08/12 11:11:31;;;;;;;1999.90;999.90;;;25.40;99.90;;;;;;5058052;28;20405;-86
2021/08/12 11:13:59;;;;;;;1999.90;999.90;;;25.30;99.90;;;;;;5057314;28;20912;-85
2021/08/12 11:16:45;;;;;;;1999.90;999.90;;;25.60;98.50;;;;;;5038691;28;20429;-85
2021/08/12 11:19:23;;;;;;;1999.90;999.90;;;25.60;94.20;;;;;;5056386;28;20414;-85
2021/08/12 11:21:50;;;;;;;1999.90;999.90;;;25.90;99.90;;;;;;5057319;28;20464;-85
2021/08/12 11:24:25;;;;;;;1999.90;999.90;;;26.10;97.70;;;;;;5060142;28;20402;-85
2021/08/12 11:26:51;;;;;;;1999.90;999.90;;;26.10;96.10;;;;;;5041033;28;20961;-86
2021/08/12 11:29:27;;;;;;;1999.90;999.90;;;26.20;93.70;;;;;;5042377;28;20407;-85
2021/08/12 11:32:02;;;;;;;1999.90;999.90;;;26.40;91.70;;;;;;5058269;28;20889;-85
2021/08/12 11:34:36;;;;;;;1999.90;999.90;;;26.50;91.00;;;;;;5040321;28;20421;-85
2021/08/12 11:37:12;;;;;;;1999.90;999.90;;;26.50;64.00;;;;;;5039762;28;21045;-85
2021/08/12 11:40:01;;;;;;;1999.90;999.90;;;26.70;81.70;;;;;;5040029;28;20886;-86
2021/08/12 11:42:28;;;;;;;1999.90;999.90;;;26.70;87.80;;;;;;5056574;28;21056;-86
2021/08/12 11:44:57;;;;;;;1999.90;999.90;;;26.60;83.20;;;;;;5058213;28;20410;-86
2021/08/12 11:47:23;;;;;;;1999.90;999.90;;;26.80;83.70;;;;;;5056838;28;20430;-85
2021/08/12 11:49:54;;;;;;;1999.90;999.90;;;27.10;84.40;;;;;;5040481;28;20451;-86
2021/08/12 11:52:34;;;;;;;1999.90;999.90;;;27.40;77.90;;;;;;5057111;28;20494;-85
2021/08/12 11:55:13;;;;;;;1999.90;999.90;;;27.50;64.50;;;;;;5056687;28;20413;-86
2021/08/12 11:57:45;;;;;;;1999.90;999.90;;;27.70;71.40;;;;;;5041049;28;20438;-86
2021/08/12 12:00:15;;;;;;;1999.90;999.90;;;28.00;80.60;;;;;;5041291;28;20407;-86
2021/08/12 12:02:51;;;;;;;1999.90;999.90;;;27.80;64.20;;;;;;5058802;28;20447;-86
2021/08/12 12:05:28;;;;;;;1999.90;999.90;;;28.00;66.10;;;;;;5058378;28;20383;-85
2021/08/12 12:07:58;;;;;;;1999.90;999.90;;;28.20;56.10;;;;;;5038886;28;20434;-86
2021/08/12 12:10:26;;;;;;;1999.90;999.90;;;28.40;61.20;;;;;;5060320;28;20960;-85
2021/08/12 12:12:52;;;;;;;1999.90;999.90;;;28.70;38.20;;;;;;5040676;28;20415;-86
2021/08/12 12:15:37;;;;;;;1999.90;999.90;;;28.70;22.30;;;;;;5039144;28;20922;-86
2021/08/12 12:18:07;;;;;;;1999.90;999.90;;;28.70;16.20;;;;;;5038642;28;21008;-86
2021/08/12 12:20:59;;;;;;;1999.90;999.90;;;28.60;19.90;;;;;;5038381;28;20426;-86
2021/08/12 12:23:25;;;;;;;1999.90;999.90;;;28.50;12.30;;;;;;5019154;28;20834;-86
2021/08/12 12:26:04;;;;;;;1999.90;999.90;;;28.40;9.50;;;;;;5037142;28;20418;-86
2021/08/12 12:28:40;;;;;;;1999.90;999.90;;;28.40;5.90;;;;;;5055273;28;20399;-86
2021/08/12 12:31:16;;;;;;;1999.90;999.90;;;28.30;8.60;;;;;;5055437;28;20395;-88
2021/08/12 12:33:57;;;;;;;1999.90;999.90;;;28.50;19.30;;;;;;5036344;28;20914;-88
2021/08/12 12:36:43;;;;;;;1999.90;999.90;;;28.60;15.60;;;;;;5054570;28;20422;-88
2021/08/12 12:39:40;;;;;;;;;;;;;;;;;;;;;
2021/08/12 12:42:07;;;;;;;1999.90;999.90;;;29.10;10.80;;;;;;5053876;28;20475;-87
2021/08/12 12:45:14;;;;;;;1999.90;999.90;;;29.10;6.70;;;;;;5054075;28;20503;-88
2021/08/12 12:47:46;;;;;;;1999.90;999.90;;;29.20;9.60;;;;;;5035944;28;20200;-88
2021/08/12 12:50:23;;;;;;;1999.90;999.90;;;29.50;7.30;;;;;;5035821;28;20415;-86
2021/08/12 12:53:04;;;;;;;1999.90;999.90;;;29.70;4.20;;;;;;5054043;28;20427;-86